Time;durP1;ratioP1;P1;durP2;ratioP2;P2;SDS_P1;SDS_P2;PMS_P1;PMS_P2;Temp;Humidity;BMP_temperature;BMP_pressure;BME280_temperature;BME280_humidity;BME280_pressure;Samples;Min_cycle;Max_cycle;Signal;HPM_P1;HPM_P2
2023/02/16 00:01:54;;;;;;;;;;;;;;;2.44;55.04;100448.19;107480;1254;71032;-37
2023/02/16 00:04:25;;;;;;;7.00;2.90;;;;;;;2.36;55.20;100448.03;107468;1257;73797;-37
2023/02/16 00:06:54;;;;;;;6.20;3.20;;;;;;;2.33;55.56;100447.25;107466;1254;60442;-37
2023/02/16 00:09:23;;;;;;;6.10;2.90;;;;;;;2.36;55.85;100444.61;107283;1259;61528;-37
2023/02/16 00:14:40;;;;;;;6.40;2.80;;;;;;;2.44;55.91;100438.55;107479;1254;69930;-37
2023/02/16 00:17:09;;;;;;;6.00;2.70;;;;;;;2.46;55.80;100441.00;107506;1253;73809;-37
2023/02/16 00:19:38;;;;;;;5.10;2.80;;;;;;;2.49;56.02;100443.17;107293;1259;60748;-36
2023/02/16 00:22:07;;;;;;;5.70;2.70;;;;;;;2.51;56.12;100440.80;107549;1254;61474;-36
2023/02/16 00:24:36;;;;;;;4.70;2.50;;;;;;;2.54;56.07;100440.67;107513;1254;75448;-37
2023/02/16 00:27:12;;;;;;;5.80;3.10;;;;;;;2.58;56.01;100437.65;107494;1254;69859;-37
2023/02/16 00:29:41;;;;;;;6.40;3.10;;;;;;;2.60;55.84;100436.81;107533;1254;73757;-37
2023/02/16 00:32:13;;;;;;;7.50;3.40;;;;;;;2.62;55.76;100435.80;107508;1258;59781;-37
2023/02/16 00:34:45;;;;;;;6.90;3.20;;;;;;;2.62;55.78;100439.64;107524;1254;61283;-37
2023/02/16 00:37:15;;;;;;;8.50;3.20;;;;;;;2.64;56.02;100434.70;107495;1255;74715;-37
2023/02/16 00:39:44;;;;;;;5.20;3.20;;;;;;;2.67;55.95;100438.16;107459;1257;69888;-37
2023/02/16 00:42:17;;;;;;;5.60;3.50;;;;;;;2.66;56.06;100436.08;107450;1258;73681;-37
2023/02/16 00:44:47;;;;;;;7.20;3.30;;;;;;;2.66;56.28;100433.09;107341;1254;61056;-37
2023/02/16 00:47:17;;;;;;;;;;;;;;;2.65;56.16;100431.33;107365;1259;60152;-37
2023/02/16 00:49:46;;;;;;;8.00;3.10;;;;;;;2.59;56.28;100429.27;107501;1258;73530;-37
2023/02/16 00:52:17;;;;;;;7.00;3.60;;;;;;;2.54;56.35;100428.79;107535;1259;69718;-37
2023/02/16 00:54:45;;;;;;;7.20;3.50;;;;;;;2.56;56.45;100430.95;107251;1254;73795;-39
2023/02/16 00:57:15;;;;;;;6.70;3.60;;;;;;;2.60;56.49;100428.91;107510;1253;60514;-37
2023/02/16 00:59:45;;;;;;;4.50;2.50;;;;;;;2.60;56.55;100417.11;106605;1260;1003747;-37
2023/02/16 01:02:14;;;;;;;6.40;3.60;;;;;;;2.59;56.25;100422.59;107380;1254;75031;-37
2023/02/16 01:04:43;;;;;;;4.20;2.80;;;;;;;2.58;56.52;100414.51;107301;1259;69945;-37
2023/02/16 01:12:46;;;;;;;6.10;3.20;;;;;;;2.49;56.79;100409.67;106778;1254;1003438;-37
2023/02/16 01:15:15;;;;;;;7.40;3.50;;;;;;;2.44;56.88;100397.18;107241;1255;74737;-37
2023/02/16 01:17:44;;;;;;;7.30;3.40;;;;;;;2.38;57.12;100406.05;107254;1260;70002;-37
2023/02/16 01:20:20;;;;;;;8.00;3.80;;;;;;;2.34;57.49;100406.30;107414;1254;73707;-37
2023/02/16 01:22:48;;;;;;;7.60;3.10;;;;;;;2.28;57.53;100408.11;106757;1253;1002706;-37
2023/02/16 01:25:21;;;;;;;5.80;3.30;;;;;;;2.18;57.77;100409.88;106744;1253;1003782;-37
2023/02/16 01:27:49;;;;;;;7.90;3.80;;;;;;;2.15;57.77;100413.23;106754;1254;1003658;-37
2023/02/16 01:30:19;;;;;;;6.70;3.30;;;;;;;2.11;57.98;100409.46;106763;1258;1003104;-37
2023/02/16 01:32:51;;;;;;;7.20;3.50;;;;;;;2.06;58.25;100409.23;107501;1254;73440;-37
2023/02/16 01:35:28;;;;;;;8.20;3.40;;;;;;;2.03;58.17;100410.52;107310;1260;60450;-37
2023/02/16 01:37:56;;;;;;;6.10;3.00;;;;;;;1.97;58.29;100411.70;107565;1254;61445;-37
2023/02/16 01:40:29;;;;;;;7.10;3.60;;;;;;;1.91;58.60;100412.36;107541;1257;75046;-37
2023/02/16 01:43:18;;;;;;;6.10;3.00;;;;;;;1.88;58.96;100411.27;107475;1258;67765;-38
2023/02/16 01:45:53;;;;;;;7.20;3.30;;;;;;;1.81;58.85;100415.48;107327;1254;72925;-38
2023/02/16 01:48:26;;;;;;;6.50;2.90;;;;;;;1.76;59.16;100415.43;107507;1254;60466;-38
2023/02/16 01:51:28;;;;;;;6.00;3.10;;;;;;;1.78;59.50;100414.68;106568;1254;1002924;-37
2023/02/16 01:54:22;;;;;;;6.50;3.20;;;;;;;1.83;59.76;100412.91;107010;1254;74798;-38
2023/02/16 01:56:59;;;;;;;8.40;3.40;;;;;;;1.85;59.61;100411.98;107440;1254;69931;-38
2023/02/16 01:59:52;;;;;;;8.20;3.30;;;;;;;1.89;59.89;100411.84;106839;1254;352983;-38
2023/02/16 02:07:30;;;;;;;5.80;3.00;;;;;;;2.06;59.92;100420.51;106763;1268;60428;-38
2023/02/16 02:10:20;;;;;;;6.60;3.20;;;;;;;2.03;59.84;100407.42;106628;1270;61298;-37
2023/02/16 02:12:58;;;;;;;8.30;3.40;;;;;;;2.14;59.75;100413.13;106837;1269;71224;-37
2023/02/16 02:15:28;;;;;;;8.80;4.00;;;;;;;2.13;59.90;100416.24;106702;1266;68159;-36
2023/02/16 02:17:57;;;;;;;7.30;3.60;;;;;;;2.13;59.88;100416.56;106630;1264;165150;-37
2023/02/16 02:23:30;;;;;;;6.90;3.60;;;;;;;2.15;59.90;100419.48;106852;1269;59206;-38
2023/02/16 02:23:32;;;;;;;7.00;3.70;;;;;;;2.20;59.90;100423.05;106852;1267;61186;-37
2023/02/16 02:26:37;;;;;;;6.10;3.60;;;;;;;2.24;59.91;100420.61;106989;1261;73293;-37
2023/02/16 02:29:10;;;;;;;8.20;3.80;;;;;;;2.28;59.73;100419.98;107012;1261;69837;-37
2023/02/16 02:32:08;;;;;;;8.10;4.10;;;;;;;2.21;59.75;100418.17;106257;1264;1002586;-37
2023/02/16 02:34:52;;;;;;;5.80;3.40;;;;;;;2.17;59.71;100417.77;106870;1260;60052;-37
2023/02/16 02:37:49;;;;;;;7.10;3.90;;;;;;;2.11;59.82;100415.73;106951;1266;61514;-37
2023/02/16 02:40:40;;;;;;;6.70;4.00;;;;;;;2.07;60.12;100412.11;106793;1266;73286;-37
2023/02/16 02:43:12;;;;;;;7.60;3.90;;;;;;;2.04;60.10;100409.71;106754;1266;69840;-36
2023/02/16 02:46:02;;;;;;;6.90;4.00;;;;;;;2.04;60.61;100409.02;106872;1265;73779;-37
2023/02/16 02:48:32;;;;;;;9.10;2.90;;;;;;;2.08;60.95;100406.00;106804;1262;60868;-36
2023/02/16 03:03:35;;;;;;;7.80;4.20;;;;;;;2.01;61.01;100407.49;106956;1261;60219;-36
2023/02/16 03:06:05;;;;;;;5.90;3.40;;;;;;;1.97;61.24;100407.73;107004;1264;61262;-36
2023/02/16 03:08:34;;;;;;;;;;;;;;;1.91;61.36;100410.28;107047;1262;75271;-37
2023/02/16 03:14:25;;;;;;;6.20;3.50;;;;;;;1.69;61.45;100405.85;107034;1259;73958;-37
2023/02/16 03:31:02;;;;;;;7.70;3.60;;;;;;;1.75;61.66;100401.02;106905;1266;60898;-37
2023/02/16 03:33:31;;;;;;;8.60;3.90;;;;;;;1.84;61.83;100397.97;107050;1260;60259;-37
2023/02/16 03:36:00;;;;;;;6.70;3.90;;;;;;;1.92;61.42;100396.41;106985;1260;74111;-37
2023/02/16 03:38:31;;;;;;;6.90;3.90;;;;;;;1.96;61.45;100394.31;106964;1263;68616;-37
2023/02/16 03:41:00;;;;;;;6.50;3.80;;;;;;;2.01;61.26;100389.25;106987;1263;73960;-37
2023/02/16 03:43:29;;;;;;;10.10;4.30;;;;;;;2.06;61.06;100389.07;106314;1263;1003418;-37
2023/02/16 03:45:57;;;;;;;6.40;4.00;;;;;;;2.08;60.92;100384.55;107008;1261;61220;-37
2023/02/16 03:48:26;;;;;;;8.20;4.00;;;;;;;2.07;61.02;100380.83;107038;1263;74256;-37
2023/02/16 03:50:55;;;;;;;10.10;4.00;;;;;;;2.04;60.77;100371.09;107110;1263;69922;-37
2023/02/16 03:53:24;;;;;;;7.30;3.90;;;;;;;2.01;60.78;100368.50;107042;1261;73813;-37
2023/02/16 03:55:53;;;;;;;7.90;4.60;;;;;;;2.02;60.96;100366.83;106975;1261;60864;-37
2023/02/16 03:58:23;;;;;;;8.10;4.10;;;;;;;2.08;61.03;100367.27;107011;1261;61291;-37
2023/02/16 04:00:52;;;;;;;7.70;4.50;;;;;;;2.12;60.86;100364.46;106345;1261;1002923;-37
2023/02/16 04:03:21;;;;;;;7.20;3.20;;;;;;;2.14;60.70;100366.27;107001;1260;69603;-37
2023/02/16 04:05:53;;;;;;;8.40;3.90;;;;;;;2.11;60.76;100364.95;107045;1260;73899;-37
2023/02/16 04:08:22;;;;;;;6.60;3.50;;;;;;;2.06;60.76;100365.89;107083;1261;60813;-37
2023/02/16 04:10:54;;;;;;;8.00;4.20;;;;;;;2.01;60.54;100361.50;107062;1260;61337;-37
2023/02/16 04:13:23;;;;;;;9.50;4.30;;;;;;;1.96;60.78;100357.03;107044;1260;73109;-37
2023/02/16 04:15:51;;;;;;;9.90;4.70;;;;;;;1.93;60.76;100354.81;107027;1263;69986;-37
2023/02/16 04:18:20;;;;;;;7.40;4.20;;;;;;;1.93;60.91;100350.80;107080;1261;73839;-37
2023/02/16 04:20:49;;;;;;;7.30;4.20;;;;;;;1.95;60.94;100351.16;107032;1260;59743;-37
2023/02/16 04:23:17;;;;;;;6.30;4.00;;;;;;;1.97;60.66;100345.80;107022;1260;61510;-37
2023/02/16 04:25:46;;;;;;;7.70;4.20;;;;;;;1.93;60.71;100342.14;107061;1263;74094;-37
2023/02/16 04:28:14;;;;;;;8.10;4.40;;;;;;;1.88;60.74;100339.13;107071;1260;68200;-37
2023/02/16 04:30:43;;;;;;;7.40;3.90;;;;;;;1.83;60.70;100334.50;107025;1259;72703;-37
2023/02/16 04:33:11;;;;;;;6.20;4.00;;;;;;;1.85;61.03;100332.63;107051;1260;60752;-37
2023/02/16 04:35:40;;;;;;;9.40;4.40;;;;;;;1.90;61.02;100333.34;106980;1260;61596;-37
2023/02/16 04:38:11;;;;;;;9.90;4.00;;;;;;;1.93;60.95;100332.83;106972;1260;74730;-37
2023/02/16 04:40:40;;;;;;;9.70;4.60;;;;;;;1.93;60.86;100330.27;107010;1263;69979;-37
2023/02/16 04:43:09;;;;;;;7.50;4.20;;;;;;;1.92;60.95;100328.98;107082;1260;72832;-37
2023/02/16 04:45:37;;;;;;;7.70;4.00;;;;;;;1.93;60.96;100329.51;107034;1260;59807;-38
2023/02/16 04:48:06;;;;;;;9.70;4.70;;;;;;;1.97;60.94;100329.53;107029;1263;61137;-37
2023/02/16 04:50:34;;;;;;;9.80;4.70;;;;;;;2.01;61.00;100326.02;107009;1260;74176;-37
2023/02/16 04:53:03;;;;;;;6.90;3.90;;;;;;;2.06;60.94;100329.03;107006;1260;69983;-37
2023/02/16 04:55:31;;;;;;;7.90;4.20;;;;;;;2.11;61.08;100326.16;106980;1261;72797;-37
2023/02/16 04:57:59;;;;;;;9.20;4.50;;;;;;;2.14;60.99;100327.44;106970;1260;59681;-37
2023/02/16 05:00:29;;;;;;;8.90;4.40;;;;;;;2.14;61.04;100323.63;107060;1260;61400;-37
2023/02/16 05:02:57;;;;;;;7.90;4.30;;;;;;;2.14;60.88;100324.64;107031;1263;74241;-37
2023/02/16 05:05:26;;;;;;;6.90;3.90;;;;;;;2.16;61.00;100325.65;107010;1260;70345;-37
2023/02/16 05:07:54;;;;;;;11.30;4.90;;;;;;;2.18;61.11;100322.30;107038;1263;73825;-37
2023/02/16 05:10:23;;;;;;;10.70;5.00;;;;;;;2.23;60.98;100321.42;107046;1260;59631;-37
2023/02/16 05:15:43;;;;;;;11.60;5.10;;;;;;;2.07;61.06;100294.77;106981;1260;74228;-37
2023/02/16 05:18:17;;;;;;;14.90;7.40;;;;;;;2.20;61.19;100325.08;107054;1263;69826;-37
2023/02/16 05:23:40;;;;;;;13.70;6.90;;;;;;;2.16;61.52;100324.20;107043;1260;60581;-37
2023/02/16 05:26:09;;;;;;;13.30;6.90;;;;;;;2.21;61.69;100322.93;107073;1260;60158;-37
2023/02/16 05:28:39;;;;;;;10.90;6.30;;;;;;;2.31;61.55;100319.00;107032;1260;74282;-37
2023/02/16 05:31:07;;;;;;;9.20;5.10;;;;;;;2.33;61.37;100318.44;107055;1263;69976;-37
2023/02/16 05:33:37;;;;;;;9.10;4.70;;;;;;;2.33;61.38;100316.79;107044;1260;74330;-38
2023/02/16 05:36:05;;;;;;;9.70;4.80;;;;;;;2.34;61.44;100317.52;107113;1261;59632;-37
2023/02/16 05:38:34;;;;;;;8.70;4.60;;;;;;;2.32;61.58;100316.46;106982;1260;61392;-37
2023/02/16 05:41:03;;;;;;;10.60;4.80;;;;;;;2.31;61.76;100315.68;106999;1260;74337;-38
2023/02/16 05:43:33;;;;;;;;;;;;;;;2.29;61.95;100316.44;107109;1263;70815;-37
2023/02/16 05:46:07;;;;;;;9.40;4.10;;;;;;;2.24;62.03;100318.58;107047;1263;73847;-37
2023/02/16 05:48:36;;;;;;;8.00;3.90;;;;;;;2.21;62.30;100320.16;106994;1259;60628;-37
2023/02/16 05:51:05;;;;;;;10.90;4.30;;;;;;;2.23;62.44;100322.27;107085;1263;61422;-37
2023/02/16 05:53:34;;;;;;;9.90;4.20;;;;;;;2.25;62.49;100323.33;107127;1261;73935;-37
2023/02/16 05:56:02;;;;;;;9.70;4.20;;;;;;;2.25;62.56;100324.23;107110;1263;69803;-38
2023/02/16 05:58:35;;;;;;;7.60;3.90;;;;;;;2.22;62.61;100324.16;107076;1260;73882;-37
2023/02/16 06:01:03;;;;;;;7.90;3.50;;;;;;;2.19;62.81;100328.50;107040;1260;60174;-37
2023/02/16 06:03:34;;;;;;;7.70;3.90;;;;;;;2.10;63.12;100316.44;107117;1261;59499;-37
2023/02/16 06:06:04;;;;;;;7.30;3.80;;;;;;;2.04;63.28;100320.17;107077;1260;72072;-37
2023/02/16 06:08:35;;;;;;;8.90;3.80;;;;;;;2.07;63.43;100326.67;107076;1260;69718;-37
2023/02/16 06:11:05;;;;;;;7.70;4.10;;;;;;;2.12;63.65;100326.54;107092;1260;71523;-37
2023/02/16 06:13:39;;;;;;;7.50;3.50;;;;;;;2.24;63.70;100325.38;107089;1263;60545;-37
2023/02/16 06:16:09;;;;;;;7.10;3.40;;;;;;;2.30;63.82;100327.35;107054;1260;60353;-37
2023/02/16 06:18:37;;;;;;;8.70;3.80;;;;;;;2.31;63.77;100322.32;107086;1260;74250;-37
2023/02/16 06:21:06;;;;;;;5.50;3.50;;;;;;;2.29;63.56;100322.54;107069;1260;69779;-37
2023/02/16 06:23:34;;;;;;;7.20;3.50;;;;;;;2.29;63.63;100322.96;107017;1260;73603;-37
2023/02/16 06:26:03;;;;;;;5.70;3.50;;;;;;;2.26;63.64;100323.43;107044;1260;60455;-37
2023/02/16 06:28:32;;;;;;;7.20;3.60;;;;;;;2.23;63.78;100328.95;107070;1263;60427;-37
2023/02/16 06:31:01;;;;;;;9.30;4.20;;;;;;;2.18;63.80;100326.64;107145;1260;74755;-37
2023/02/16 06:33:30;;;;;;;8.70;4.10;;;;;;;2.18;64.03;100324.94;107094;1260;67530;-37
2023/02/16 06:35:59;;;;;;;7.30;3.80;;;;;;;2.19;64.07;100323.05;107033;1260;73748;-37
2023/02/16 06:38:29;;;;;;;9.10;4.20;;;;;;;2.15;63.97;100317.42;107040;1260;60944;-37
2023/02/16 06:40:57;;;;;;;9.30;4.70;;;;;;;2.07;64.04;100319.34;107059;1261;61565;-38
2023/02/16 06:43:25;;;;;;;8.90;4.20;;;;;;;2.03;64.21;100319.80;107090;1260;73940;-38
2023/02/16 06:45:56;;;;;;;8.20;4.30;;;;;;;2.04;64.26;100318.04;107031;1260;68164;-37
2023/02/16 06:48:25;;;;;;;9.00;5.00;;;;;;;2.09;64.16;100317.04;107024;1260;74116;-38
2023/02/16 06:50:54;;;;;;;10.70;5.60;;;;;;;2.20;64.00;100312.88;107015;1260;60758;-38
2023/02/16 06:53:24;;;;;;;10.50;5.60;;;;;;;2.29;63.49;100310.45;106967;1261;61375;-38
2023/02/16 06:55:52;;;;;;;13.90;6.10;;;;;;;2.30;63.64;100309.15;107002;1260;75065;-38
2023/02/16 06:58:21;;;;;;;14.70;6.50;;;;;;;2.28;63.48;100310.09;107027;1260;69954;-38
2023/02/16 07:00:49;;;;;;;12.20;6.50;;;;;;;2.22;63.55;100299.75;107105;1261;72542;-38
2023/02/16 07:03:18;;;;;;;13.40;6.40;;;;;;;2.26;63.55;100303.73;107054;1260;60585;-38
2023/02/16 07:05:48;;;;;;;11.90;6.70;;;;;;;2.26;63.45;100304.44;107024;1260;61576;-38
2023/02/16 07:08:16;;;;;;;9.10;5.10;;;;;;;2.28;63.24;100302.65;106938;1260;75316;-38
2023/02/16 07:10:46;;;;;;;12.10;5.70;;;;;;;2.24;63.20;100301.13;107056;1260;69703;-38
2023/02/16 07:13:17;;;;;;;12.60;5.60;;;;;;;2.19;63.25;100295.39;107041;1261;73876;-38
2023/02/16 07:15:46;;;;;;;11.60;5.70;;;;;;;2.16;63.19;100289.80;107062;1260;60426;-37
2023/02/16 07:18:15;;;;;;;10.50;4.90;;;;;;;2.11;63.11;100283.59;106332;1261;1003045;-38
2023/02/16 07:20:44;;;;;;;10.10;4.70;;;;;;;2.04;63.20;100278.19;107083;1260;75094;-38
2023/02/16 07:23:12;;;;;;;14.20;9.10;;;;;;;1.97;63.37;100280.97;107063;1260;69797;-38
2023/02/16 07:25:41;;;;;;;9.70;5.60;;;;;;;1.99;63.41;100275.98;107078;1260;73889;-38
2023/02/16 07:28:11;;;;;;;9.50;5.80;;;;;;;2.05;63.45;100275.14;107029;1259;60477;-38
2023/02/16 07:30:39;;;;;;;26.20;19.10;;;;;;;2.08;63.57;100278.63;107082;1260;61695;-38
2023/02/16 07:33:08;;;;;;;13.00;8.10;;;;;;;2.14;63.69;100277.02;107051;1260;75066;-37
2023/02/16 07:35:37;;;;;;;10.60;6.00;;;;;;;2.22;63.24;100273.43;107087;1260;69931;-38
2023/02/16 07:38:05;;;;;;;9.10;6.30;;;;;;;2.28;63.12;100270.16;107042;1260;72877;-38
2023/02/16 07:40:34;;;;;;;9.30;4.40;;;;;;;2.30;62.76;100266.83;107050;1260;60491;-38
2023/02/16 07:43:06;;;;;;;13.60;7.20;;;;;;;2.30;62.75;100268.17;107026;1259;60522;-37
2023/02/16 07:45:35;;;;;;;9.60;5.20;;;;;;;2.31;62.74;100266.29;107042;1259;72812;-37
2023/02/16 07:48:04;;;;;;;8.50;4.40;;;;;;;2.31;62.77;100258.95;107009;1263;67887;-37
2023/02/16 07:50:33;;;;;;;11.90;6.90;;;;;;;2.29;62.82;100261.53;107058;1261;73594;-37
2023/02/16 07:53:01;;;;;;;39.40;24.60;;;;;;;2.28;63.00;100262.56;107058;1259;60740;-37
2023/02/16 07:55:31;;;;;;;19.60;11.40;;;;;;;2.31;62.79;100260.39;107037;1263;61120;-37
2023/02/16 07:58:03;;;;;;;14.20;8.50;;;;;;;2.35;62.94;100256.13;107027;1259;75030;-37
2023/02/16 08:00:33;;;;;;;22.20;12.70;;;;;;;2.48;62.74;100257.38;107073;1260;69742;-36
2023/02/16 08:03:02;;;;;;;74.70;44.40;;;;;;;2.59;62.14;100256.30;107062;1260;73694;-37
2023/02/16 08:05:33;;;;;;;24.40;12.00;;;;;;;2.67;61.63;100255.52;107081;1260;60858;-37
2023/02/16 08:08:01;;;;;;;16.60;8.60;;;;;;;2.73;61.29;100252.52;107071;1259;60361;-37
2023/02/16 08:10:35;;;;;;;10.10;5.60;;;;;;;2.76;61.00;100251.61;107056;1260;75002;-36
2023/02/16 08:13:03;;;;;;;11.70;6.60;;;;;;;2.79;60.79;100248.36;107077;1259;69624;-37
2023/02/16 08:15:32;;;;;;;9.80;5.30;;;;;;;2.83;60.35;100246.45;106973;1260;73754;-37
2023/02/16 08:18:00;;;;;;;9.70;5.50;;;;;;;2.84;60.21;100241.77;106972;1260;60650;-36
2023/02/16 08:20:29;;;;;;;36.10;23.70;;;;;;;2.86;60.09;100244.59;107057;1260;61373;-37
2023/02/16 08:23:18;;;;;;;13.20;8.70;;;;;;;2.88;60.00;100242.58;107053;1260;73996;-36
2023/02/16 08:25:47;;;;;;;13.00;6.60;;;;;;;2.88;60.18;100242.80;107113;1261;69945;-37
2023/02/16 08:28:16;;;;;;;6.00;3.90;;;;;;;2.89;59.90;100241.40;107015;1260;73925;-37
2023/02/16 08:30:44;;;;;;;10.60;4.90;;;;;;;2.87;59.86;100240.28;107013;1260;61078;-36
2023/02/16 08:33:13;;;;;;;11.00;5.40;;;;;;;2.84;59.99;100238.94;106270;1260;1002974;-37
2023/02/16 08:35:44;;;;;;;;;;;;;;;2.82;60.15;100236.27;107013;1260;75806;-37
2023/02/16 08:38:12;;;;;;;11.40;5.90;;;;;;;2.78;60.56;100235.73;106262;1261;1003558;-37
2023/02/16 08:40:47;;;;;;;15.70;10.60;;;;;;;2.77;60.92;100235.70;107018;1260;73608;-38
2023/02/16 08:43:16;;;;;;;21.70;11.70;;;;;;;2.81;60.77;100234.95;106991;1260;60620;-37
2023/02/16 08:45:50;;;;;;;13.10;7.50;;;;;;;2.86;60.83;100234.35;106978;1265;61362;-37
2023/02/16 08:48:19;;;;;;;42.30;27.30;;;;;;;2.88;60.91;100236.48;106979;1260;75049;-37
2023/02/16 08:50:53;;;;;;;48.00;29.00;;;;;;;2.90;61.00;100243.03;107034;1260;70054;-37
2023/02/16 08:53:24;;;;;;;17.10;9.40;;;;;;;2.94;60.67;100240.08;106965;1260;72623;-37
2023/02/16 08:55:56;;;;;;;17.50;8.40;;;;;;;2.95;60.56;100238.89;107000;1260;60546;-37
2023/02/16 08:58:25;;;;;;;42.00;22.60;;;;;;;2.95;60.58;100242.21;106985;1260;61330;-38
2023/02/16 09:00:54;;;;;;;13.00;7.50;;;;;;;2.96;60.90;100238.83;107021;1260;74794;-38
2023/02/16 09:03:23;;;;;;;8.80;4.40;;;;;;;2.98;60.92;100239.30;107016;1260;69882;-38
2023/02/16 09:05:53;;;;;;;16.70;9.10;;;;;;;2.98;61.01;100237.90;106995;1263;74330;-37
2023/02/16 09:08:22;;;;;;;17.70;9.30;;;;;;;2.98;60.72;100235.27;106260;1260;1003739;-37
2023/02/16 09:10:50;;;;;;;14.10;7.40;;;;;;;2.99;60.72;100237.29;106991;1261;61509;-38
2023/02/16 09:13:20;;;;;;;11.00;6.70;;;;;;;3.01;60.84;100234.21;106966;1260;74845;-38
2023/02/16 09:15:49;;;;;;;12.70;7.00;;;;;;;3.03;60.43;100229.75;106921;1260;68461;-38
2023/02/16 09:18:21;;;;;;;9.60;5.40;;;;;;;3.05;60.48;100229.02;106875;1260;73853;-38
2023/02/16 09:20:50;;;;;;;11.50;5.80;;;;;;;3.07;60.25;100224.39;106976;1260;60746;-37
2023/02/16 09:23:20;;;;;;;13.70;6.10;;;;;;;3.08;60.00;100223.52;107031;1260;61561;-38
2023/02/16 09:25:49;;;;;;;29.10;15.80;;;;;;;3.08;60.26;100222.23;107005;1260;73301;-38
2023/02/16 09:28:17;;;;;;;65.40;32.90;;;;;;;3.10;60.38;100218.73;106961;1260;69803;-38
2023/02/16 09:30:46;;;;;;;39.80;21.30;;;;;;;3.13;60.54;100216.33;106949;1261;73871;-38
2023/02/16 09:33:16;;;;;;;68.50;36.40;;;;;;;3.16;60.28;100207.02;106870;1261;60753;-38
2023/02/16 09:35:44;;;;;;;58.20;30.00;;;;;;;3.19;59.96;100207.17;106883;1260;60521;-38
2023/02/16 09:38:15;;;;;;;45.20;27.90;;;;;;;3.23;59.59;100206.48;107054;1260;73821;-38
2023/02/16 09:40:44;;;;;;;24.60;15.00;;;;;;;3.26;59.28;100208.00;107042;1264;69737;-38
2023/02/16 09:43:34;;;;;;;22.10;12.80;;;;;;;3.28;59.31;100205.45;106982;1260;73533;-38
2023/02/16 09:46:07;;;;;;;26.30;15.70;;;;;;;3.29;59.19;100201.88;106970;1264;60543;-38
2023/02/16 09:48:36;;;;;;;45.40;25.20;;;;;;;3.30;59.58;100197.86;106902;1261;61540;-37
2023/02/16 09:51:22;;;;;;;45.20;25.70;;;;;;;3.34;59.16;100198.23;107001;1260;73333;-37
2023/02/16 09:54:08;;;;;;;32.90;17.50;;;;;;;3.38;59.14;100194.62;107284;1256;70011;-37
2023/02/16 09:56:39;;;;;;;42.70;24.60;;;;;;;3.40;59.44;100192.02;107236;1256;73881;-37
2023/02/16 09:59:13;;;;;;;12.40;7.40;;;;;;;3.40;59.34;100189.06;107277;1256;60665;-37
2023/02/16 10:01:48;;;;;;;25.70;17.00;;;;;;;3.42;59.21;100191.55;107218;1257;61538;-37
2023/02/16 10:04:41;;;;;;;35.70;22.60;;;;;;;3.45;59.08;100183.80;107090;1256;74957;-37
2023/02/16 10:07:19;;;;;;;17.00;10.50;;;;;;;3.47;58.97;100180.33;107082;1260;69983;-37
2023/02/16 10:09:50;;;;;;;15.20;7.80;;;;;;;3.48;58.95;100177.69;107128;1256;73963;-38
2023/02/16 10:12:23;;;;;;;20.10;12.40;;;;;;;3.54;59.35;100178.56;107103;1256;60704;-38
2023/02/16 10:14:53;;;;;;;14.20;9.20;;;;;;;3.60;59.52;100172.19;107196;1256;61486;-37
2023/02/16 10:17:34;;;;;;;14.30;7.80;;;;;;;3.66;59.37;100169.31;107093;1256;74840;-38
2023/02/16 10:20:22;;;;;;;18.80;10.30;;;;;;;3.70;59.22;100166.94;107207;1256;68757;-38
2023/02/16 10:23:23;;;;;;;13.60;6.10;;;;;;;3.73;58.95;100158.88;107228;1256;73985;-37
2023/02/16 10:25:56;;;;;;;10.50;5.90;;;;;;;3.82;59.07;100155.46;107228;1256;60887;-37
2023/02/16 10:28:47;;;;;;;11.90;6.10;;;;;;;3.91;58.72;100150.80;107285;1256;61998;-37
2023/02/16 10:31:19;;;;;;;12.00;6.50;;;;;;;4.05;58.17;100149.48;107272;1256;75023;-37
2023/02/16 10:34:40;;;;;;;34.50;21.20;;;;;;;4.12;58.09;100146.86;107277;1256;68742;-37
2023/02/16 10:37:20;;;;;;;;;;;;;;;4.21;57.69;100139.02;106992;1257;73920;-38
2023/02/16 10:39:55;;;;;;;;;;;;;;;4.17;58.05;100130.19;107253;1259;60788;-37
2023/02/16 10:42:32;;;;;;;36.60;22.60;;;;;;;4.14;57.80;100131.16;107221;1257;61299;-37
2023/02/16 10:45:22;;;;;;;35.10;23.10;;;;;;;4.21;57.80;100126.83;107200;1256;74825;-37
2023/02/16 10:47:54;;;;;;;28.90;18.00;;;;;;;4.34;56.28;100125.92;107213;1256;69921;-37
2023/02/16 10:50:55;;;;;;;22.00;13.40;;;;;;;4.47;56.36;100124.77;105601;1256;1003800;-37
2023/02/16 10:53:30;;;;;;;10.10;6.00;;;;;;;4.68;56.14;100120.43;107214;1256;60881;-37
2023/02/16 10:56:00;;;;;;;26.50;16.20;;;;;;;4.88;56.13;100113.58;107271;1256;61514;-37
2023/02/16 10:58:37;;;;;;;12.90;7.70;;;;;;;5.12;56.03;100111.17;107243;1255;74685;-37
2023/02/16 11:01:41;;;;;;;23.30;12.30;;;;;;;5.37;55.33;100112.11;107234;1256;70221;-37
2023/02/16 11:04:38;;;;;;;12.80;7.40;;;;;;;5.63;52.84;100108.45;107236;1256;73884;-38
2023/02/16 11:07:10;;;;;;;11.70;6.70;;;;;;;5.93;51.76;100105.77;107234;1256;60913;-37
2023/02/16 11:09:40;;;;;;;13.90;8.40;;;;;;;6.18;49.90;100099.39;107247;1256;61487;-37
2023/02/16 11:12:39;;;;;;;12.60;7.90;;;;;;;6.32;48.99;100092.05;107310;1255;73893;-37
2023/02/16 11:15:15;;;;;;;20.80;11.40;;;;;;;6.44;50.18;100089.10;107270;1256;69791;-37
2023/02/16 11:17:49;;;;;;;24.70;12.80;;;;;;;6.64;49.65;100084.76;107299;1256;71727;-38
2023/02/16 11:20:43;;;;;;;17.80;9.30;;;;;;;6.91;48.26;100078.38;107316;1256;60891;-38
2023/02/16 11:23:40;;;;;;;16.60;10.60;;;;;;;7.23;46.98;100070.16;107267;1256;61542;-38
2023/02/16 11:26:08;;;;;;;11.70;6.30;;;;;;;7.45;47.78;100070.19;107175;1256;75017;-38
2023/02/16 11:28:45;;;;;;;11.40;6.10;;;;;;;7.52;47.71;100059.21;107128;1256;70452;-36
2023/02/16 11:31:32;;;;;;;8.70;5.70;;;;;;;7.56;47.86;100056.98;107123;1257;71972;-37
2023/02/16 11:34:33;;;;;;;9.10;5.60;;;;;;;7.71;47.44;100047.60;107214;1256;60688;-37
2023/02/16 11:37:12;;;;;;;11.00;6.10;;;;;;;7.97;46.80;100040.55;107216;1256;61536;-37
2023/02/16 11:39:49;;;;;;;11.30;6.60;;;;;;;8.04;46.44;100035.45;107164;1256;74965;-38
2023/02/16 11:42:26;;;;;;;9.10;6.30;;;;;;;8.07;46.44;100032.11;107316;1256;69991;-37
2023/02/16 11:44:56;;;;;;;10.80;5.90;;;;;;;8.05;46.09;100027.21;107250;1256;71762;-37
2023/02/16 11:47:27;;;;;;;10.50;6.20;;;;;;;8.02;46.13;100023.48;107295;1256;60550;-37
2023/02/16 11:50:22;;;;;;;9.60;6.60;;;;;;;7.99;46.27;100021.66;107280;1256;60935;-37
2023/02/16 11:52:53;;;;;;;9.50;5.70;;;;;;;7.93;45.68;100017.17;107277;1256;75056;-37
2023/02/16 11:55:32;;;;;;;8.10;5.50;;;;;;;7.77;45.50;100011.91;107222;1256;70251;-38
2023/02/16 11:58:21;;;;;;;22.40;13.00;;;;;;;7.59;45.92;100008.32;107242;1256;74019;-38
2023/02/16 12:01:35;;;;;;;13.80;7.10;;;;;;;7.48;46.25;100002.39;107266;1258;60436;-38
2023/02/16 12:04:19;;;;;;;57.00;30.10;;;;;;;7.53;46.11;99999.45;107064;1256;61497;-37
2023/02/16 12:07:16;;;;;;;10.20;6.30;;;;;;;7.61;45.61;99990.05;107270;1256;74919;-38
2023/02/16 12:09:52;;;;;;;10.70;5.50;;;;;;;7.67;45.41;99985.52;106987;1256;69437;-37
2023/02/16 12:12:36;;;;;;;12.40;6.00;;;;;;;7.69;44.91;99988.85;107138;1256;73862;-37
2023/02/16 12:15:14;;;;;;;8.30;5.50;;;;;;;7.63;45.07;99984.81;107180;1255;60449;-38
2023/02/16 12:17:49;;;;;;;9.10;5.10;;;;;;;7.53;44.72;99990.50;107174;1256;61142;-38
2023/02/16 12:20:36;;;;;;;8.70;5.30;;;;;;;7.38;44.95;99989.96;107264;1260;75047;-37
2023/02/16 12:23:40;;;;;;;10.70;5.90;;;;;;;7.18;45.56;99984.73;107129;1256;69854;-37
2023/02/16 12:26:17;;;;;;;9.80;5.90;;;;;;;6.87;45.79;99977.58;107095;1256;73887;-38
2023/02/16 12:28:58;;;;;;;8.10;5.00;;;;;;;6.64;46.18;99983.17;107250;1255;60780;-37
2023/02/16 12:32:03;;;;;;;11.50;5.50;;;;;;;6.42;47.02;99978.19;107290;1256;61662;-38
2023/02/16 12:34:36;;;;;;;9.00;5.40;;;;;;;6.27;47.28;99974.89;107280;1255;75022;-38
2023/02/16 12:37:07;;;;;;;11.20;5.70;;;;;;;6.17;47.80;99970.80;107288;1256;69872;-37
2023/02/16 12:39:45;;;;;;;12.20;6.60;;;;;;;6.10;48.35;99966.13;107291;1256;74003;-37
2023/02/16 12:42:29;;;;;;;12.50;6.00;;;;;;;6.05;48.54;99963.49;107263;1256;60305;-38